sensor_id;sensor_type;location;lat;lon;timestamp;P1;durP1;ratioP1;P2;durP2;ratioP2
35576;SDS011;21680;52.400;16.920;2022-12-18T00:01:28;93.20;;;26.60;;
35576;SDS011;21680;52.400;16.920;2022-12-18T00:03:54;99.40;;;29.80;;
35576;SDS011;21680;52.400;16.920;2022-12-18T00:06:21;76.00;;;21.70;;
35576;SDS011;21680;52.400;16.920;2022-12-18T00:08:47;92.00;;;26.60;;
35576;SDS011;21680;52.400;16.920;2022-12-18T00:11:14;78.80;;;22.00;;
35576;SDS011;21680;52.400;16.920;2022-12-18T00:13:41;81.90;;;22.90;;
35576;SDS011;21680;52.400;16.920;2022-12-18T00:16:09;81.20;;;23.10;;
35576;SDS011;21680;52.400;16.920;2022-12-18T00:18:36;103.30;;;24.40;;
35576;SDS011;21680;52.400;16.920;2022-12-18T00:21:02;92.70;;;23.00;;
35576;SDS011;21680;52.400;16.920;2022-12-18T00:23:30;82.30;;;23.20;;
35576;SDS011;21680;52.400;16.920;2022-12-18T00:26:00;91.80;;;24.20;;
35576;SDS011;21680;52.400;16.920;2022-12-18T00:28:27;71.60;;;20.90;;
35576;SDS011;21680;52.400;16.920;2022-12-18T00:31:02;97.40;;;25.00;;
35576;SDS011;21680;52.400;16.920;2022-12-18T00:33:30;80.40;;;21.00;;
35576;SDS011;21680;52.400;16.920;2022-12-18T00:36:03;89.70;;;24.40;;
35576;SDS011;21680;52.400;16.920;2022-12-18T00:38:29;105.00;;;26.10;;
35576;SDS011;21680;52.400;16.920;2022-12-18T00:40:55;111.20;;;28.70;;
35576;SDS011;21680;52.400;16.920;2022-12-18T00:43:20;99.70;;;26.50;;
35576;SDS011;21680;52.400;16.920;2022-12-18T00:45:45;99.30;;;23.80;;
35576;SDS011;21680;52.400;16.920;2022-12-18T00:48:11;99.90;;;26.80;;
35576;SDS011;21680;52.400;16.920;2022-12-18T00:50:36;86.50;;;24.60;;
35576;SDS011;21680;52.400;16.920;2022-12-18T00:53:01;83.00;;;21.30;;
35576;SDS011;21680;52.400;16.920;2022-12-18T00:55:27;103.20;;;25.40;;
35576;SDS011;21680;52.400;16.920;2022-12-18T00:57:52;98.90;;;24.70;;
35576;SDS011;21680;52.400;16.920;2022-12-18T01:00:17;106.20;;;27.00;;
35576;SDS011;21680;52.400;16.920;2022-12-18T01:02:44;110.00;;;27.00;;
35576;SDS011;21680;52.400;16.920;2022-12-18T01:05:10;89.40;;;24.00;;
35576;SDS011;21680;52.400;16.920;2022-12-18T01:07:37;109.90;;;26.60;;
35576;SDS011;21680;52.400;16.920;2022-12-18T01:10:03;92.30;;;23.30;;
35576;SDS011;21680;52.400;16.920;2022-12-18T01:12:30;81.90;;;19.90;;
35576;SDS011;21680;52.400;16.920;2022-12-18T01:14:55;84.40;;;20.80;;
35576;SDS011;21680;52.400;16.920;2022-12-18T01:17:21;93.90;;;25.00;;
35576;SDS011;21680;52.400;16.920;2022-12-18T01:19:47;93.50;;;23.50;;
35576;SDS011;21680;52.400;16.920;2022-12-18T01:22:12;104.40;;;24.60;;
35576;SDS011;21680;52.400;16.920;2022-12-18T01:24:37;115.80;;;26.90;;
35576;SDS011;21680;52.400;16.920;2022-12-18T01:27:03;107.70;;;26.90;;
35576;SDS011;21680;52.400;16.920;2022-12-18T01:29:28;98.20;;;22.10;;
35576;SDS011;21680;52.400;16.920;2022-12-18T01:31:57;104.10;;;26.80;;
35576;SDS011;21680;52.400;16.920;2022-12-18T01:34:22;85.60;;;21.90;;
35576;SDS011;21680;52.400;16.920;2022-12-18T01:36:49;103.30;;;26.10;;
35576;SDS011;21680;52.400;16.920;2022-12-18T01:39:17;100.90;;;25.20;;
35576;SDS011;21680;52.400;16.920;2022-12-18T01:41:43;104.30;;;26.60;;
35576;SDS011;21680;52.400;16.920;2022-12-18T01:47:25;86.20;;;20.80;;
35576;SDS011;21680;52.400;16.920;2022-12-18T01:49:51;92.70;;;24.10;;
35576;SDS011;21680;52.400;16.920;2022-12-18T01:52:17;99.30;;;26.20;;
35576;SDS011;21680;52.400;16.920;2022-12-18T01:54:45;98.60;;;24.80;;
35576;SDS011;21680;52.400;16.920;2022-12-18T01:57:12;94.50;;;23.60;;
35576;SDS011;21680;52.400;16.920;2022-12-18T01:59:38;83.20;;;25.50;;
35576;SDS011;21680;52.400;16.920;2022-12-18T02:02:06;101.80;;;24.30;;
35576;SDS011;21680;52.400;16.920;2022-12-18T02:04:32;83.40;;;19.10;;
35576;SDS011;21680;52.400;16.920;2022-12-18T02:07:07;74.90;;;18.30;;
35576;SDS011;21680;52.400;16.920;2022-12-18T02:10:04;102.20;;;25.70;;
35576;SDS011;21680;52.400;16.920;2022-12-18T02:12:41;93.60;;;23.10;;
35576;SDS011;21680;52.400;16.920;2022-12-18T02:18:05;72.20;;;20.00;;
35576;SDS011;21680;52.400;16.920;2022-12-18T02:20:36;92.60;;;24.80;;
35576;SDS011;21680;52.400;16.920;2022-12-18T02:23:11;89.90;;;24.50;;
35576;SDS011;21680;52.400;16.920;2022-12-18T02:31:28;98.40;;;24.50;;
35576;SDS011;21680;52.400;16.920;2022-12-18T02:34:01;90.00;;;23.70;;
35576;SDS011;21680;52.400;16.920;2022-12-18T02:36:29;83.70;;;18.90;;
35576;SDS011;21680;52.400;16.920;2022-12-18T02:38:57;101.70;;;25.00;;
35576;SDS011;21680;52.400;16.920;2022-12-18T02:41:24;86.30;;;21.50;;
35576;SDS011;21680;52.400;16.920;2022-12-18T02:43:55;87.50;;;21.80;;
35576;SDS011;21680;52.400;16.920;2022-12-18T02:49:03;75.00;;;19.00;;
35576;SDS011;21680;52.400;16.920;2022-12-18T02:51:40;81.00;;;19.70;;
35576;SDS011;21680;52.400;16.920;2022-12-18T02:54:27;71.40;;;20.00;;
35576;SDS011;21680;52.400;16.920;2022-12-18T02:56:55;92.40;;;23.80;;
35576;SDS011;21680;52.400;16.920;2022-12-18T02:59:30;97.70;;;22.80;;
35576;SDS011;21680;52.400;16.920;2022-12-18T03:02:08;107.90;;;28.20;;
35576;SDS011;21680;52.400;16.920;2022-12-18T03:04:48;64.00;;;16.70;;
35576;SDS011;21680;52.400;16.920;2022-12-18T03:07:21;117.60;;;26.70;;
35576;SDS011;21680;52.400;16.920;2022-12-18T03:09:58;106.30;;;28.00;;
35576;SDS011;21680;52.400;16.920;2022-12-18T03:12:33;112.90;;;26.90;;
35576;SDS011;21680;52.400;16.920;2022-12-18T03:15:13;101.80;;;26.30;;
35576;SDS011;21680;52.400;16.920;2022-12-18T03:17:52;139.70;;;30.30;;
35576;SDS011;21680;52.400;16.920;2022-12-18T03:20:24;108.80;;;25.80;;
35576;SDS011;21680;52.400;16.920;2022-12-18T03:22:54;116.50;;;26.00;;
35576;SDS011;21680;52.400;16.920;2022-12-18T03:25:24;97.60;;;23.10;;
35576;SDS011;21680;52.400;16.920;2022-12-18T03:27:52;113.00;;;23.60;;
35576;SDS011;21680;52.400;16.920;2022-12-18T03:30:22;85.10;;;20.60;;
35576;SDS011;21680;52.400;16.920;2022-12-18T03:35:40;106.90;;;25.90;;
35576;SDS011;21680;52.400;16.920;2022-12-18T03:38:07;116.50;;;24.40;;
35576;SDS011;21680;52.400;16.920;2022-12-18T03:46:11;101.40;;;25.30;;
35576;SDS011;21680;52.400;16.920;2022-12-18T03:48:39;91.30;;;21.80;;
35576;SDS011;21680;52.400;16.920;2022-12-18T03:56:15;99.20;;;23.90;;
35576;SDS011;21680;52.400;16.920;2022-12-18T03:58:41;77.80;;;20.00;;
35576;SDS011;21680;52.400;16.920;2022-12-18T04:01:09;95.50;;;22.10;;
35576;SDS011;21680;52.400;16.920;2022-12-18T04:03:38;98.20;;;25.10;;
35576;SDS011;21680;52.400;16.920;2022-12-18T04:06:05;73.60;;;18.10;;
35576;SDS011;21680;52.400;16.920;2022-12-18T04:08:32;91.40;;;24.20;;
35576;SDS011;21680;52.400;16.920;2022-12-18T04:10:59;103.80;;;23.90;;
35576;SDS011;21680;52.400;16.920;2022-12-18T04:13:29;110.40;;;24.50;;
35576;SDS011;21680;52.400;16.920;2022-12-18T04:15:59;112.90;;;22.80;;
35576;SDS011;21680;52.400;16.920;2022-12-18T04:18:26;95.30;;;23.40;;
35576;SDS011;21680;52.400;16.920;2022-12-18T04:20:51;79.90;;;21.30;;
35576;SDS011;21680;52.400;16.920;2022-12-18T04:23:16;91.30;;;22.20;;
35576;SDS011;21680;52.400;16.920;2022-12-18T04:25:42;95.70;;;23.40;;
35576;SDS011;21680;52.400;16.920;2022-12-18T04:28:07;58.70;;;15.60;;
35576;SDS011;21680;52.400;16.920;2022-12-18T04:30:32;96.60;;;23.90;;
35576;SDS011;21680;52.400;16.920;2022-12-18T04:32:58;96.70;;;21.20;;
35576;SDS011;21680;52.400;16.920;2022-12-18T04:35:23;85.20;;;21.00;;
35576;SDS011;21680;52.400;16.920;2022-12-18T04:37:48;92.30;;;21.40;;
35576;SDS011;21680;52.400;16.920;2022-12-18T04:40:14;94.80;;;24.00;;
35576;SDS011;21680;52.400;16.920;2022-12-18T04:42:39;91.80;;;24.90;;
35576;SDS011;21680;52.400;16.920;2022-12-18T04:45:05;105.10;;;22.50;;
35576;SDS011;21680;52.400;16.920;2022-12-18T04:47:32;85.30;;;20.60;;
35576;SDS011;21680;52.400;16.920;2022-12-18T04:49:57;84.80;;;23.50;;
35576;SDS011;21680;52.400;16.920;2022-12-18T04:52:22;101.20;;;25.10;;
35576;SDS011;21680;52.400;16.920;2022-12-18T04:54:48;98.40;;;25.10;;
35576;SDS011;21680;52.400;16.920;2022-12-18T04:57:13;85.60;;;21.70;;
35576;SDS011;21680;52.400;16.920;2022-12-18T04:59:38;75.40;;;19.80;;
35576;SDS011;21680;52.400;16.920;2022-12-18T05:02:04;85.50;;;22.70;;
35576;SDS011;21680;52.400;16.920;2022-12-18T05:04:29;92.30;;;23.80;;
35576;SDS011;21680;52.400;16.920;2022-12-18T05:06:55;102.40;;;23.60;;
35576;SDS011;21680;52.400;16.920;2022-12-18T05:09:20;104.80;;;26.60;;
35576;SDS011;21680;52.400;16.920;2022-12-18T05:11:45;89.20;;;19.80;;
35576;SDS011;21680;52.400;16.920;2022-12-18T05:14:11;89.30;;;19.60;;
35576;SDS011;21680;52.400;16.920;2022-12-18T05:16:37;86.20;;;22.80;;
35576;SDS011;21680;52.400;16.920;2022-12-18T05:19:03;75.10;;;19.20;;
35576;SDS011;21680;52.400;16.920;2022-12-18T05:21:28;95.90;;;24.30;;
35576;SDS011;21680;52.400;16.920;2022-12-18T05:23:53;99.00;;;23.30;;
35576;SDS011;21680;52.400;16.920;2022-12-18T05:26:19;106.30;;;26.00;;
35576;SDS011;21680;52.400;16.920;2022-12-18T05:28:44;108.40;;;24.00;;
35576;SDS011;21680;52.400;16.920;2022-12-18T05:31:11;91.20;;;21.20;;
35576;SDS011;21680;52.400;16.920;2022-12-18T05:33:37;68.10;;;17.70;;
35576;SDS011;21680;52.400;16.920;2022-12-18T05:36:03;70.70;;;16.60;;
35576;SDS011;21680;52.400;16.920;2022-12-18T05:38:31;84.50;;;20.30;;
35576;SDS011;21680;52.400;16.920;2022-12-18T05:40:58;75.40;;;18.40;;
35576;SDS011;21680;52.400;16.920;2022-12-18T05:43:24;79.40;;;20.50;;
35576;SDS011;21680;52.400;16.920;2022-12-18T05:45:50;69.70;;;20.20;;
35576;SDS011;21680;52.400;16.920;2022-12-18T05:48:17;80.30;;;22.40;;
35576;SDS011;21680;52.400;16.920;2022-12-18T05:50:44;87.30;;;19.10;;
35576;SDS011;21680;52.400;16.920;2022-12-18T05:53:13;88.00;;;22.70;;
35576;SDS011;21680;52.400;16.920;2022-12-18T05:55:40;84.50;;;19.90;;
35576;SDS011;21680;52.400;16.920;2022-12-18T05:58:08;96.30;;;20.90;;
35576;SDS011;21680;52.400;16.920;2022-12-18T06:00:35;82.40;;;21.70;;
35576;SDS011;21680;52.400;16.920;2022-12-18T06:03:05;73.70;;;18.70;;
35576;SDS011;21680;52.400;16.920;2022-12-18T06:05:34;90.10;;;23.40;;
35576;SDS011;21680;52.400;16.920;2022-12-18T06:08:01;94.80;;;22.70;;
35576;SDS011;21680;52.400;16.920;2022-12-18T06:10:26;96.40;;;23.30;;
35576;SDS011;21680;52.400;16.920;2022-12-18T06:12:51;92.20;;;23.80;;
35576;SDS011;21680;52.400;16.920;2022-12-18T06:15:17;84.00;;;20.10;;
35576;SDS011;21680;52.400;16.920;2022-12-18T06:17:42;75.70;;;20.40;;
35576;SDS011;21680;52.400;16.920;2022-12-18T06:20:07;76.10;;;18.40;;
35576;SDS011;21680;52.400;16.920;2022-12-18T06:22:33;83.70;;;23.60;;
35576;SDS011;21680;52.400;16.920;2022-12-18T06:24:59;103.40;;;22.80;;
35576;SDS011;21680;52.400;16.920;2022-12-18T06:27:25;101.30;;;21.60;;
35576;SDS011;21680;52.400;16.920;2022-12-18T06:29:50;87.20;;;21.30;;
35576;SDS011;21680;52.400;16.920;2022-12-18T06:32:19;66.40;;;16.70;;
35576;SDS011;21680;52.400;16.920;2022-12-18T06:34:44;73.50;;;17.20;;
35576;SDS011;21680;52.400;16.920;2022-12-18T06:37:09;85.80;;;21.80;;
35576;SDS011;21680;52.400;16.920;2022-12-18T06:39:35;86.70;;;19.30;;
35576;SDS011;21680;52.400;16.920;2022-12-18T06:42:00;72.70;;;17.70;;
35576;SDS011;21680;52.400;16.920;2022-12-18T06:44:26;74.50;;;19.20;;
35576;SDS011;21680;52.400;16.920;2022-12-18T06:46:51;80.30;;;19.00;;
35576;SDS011;21680;52.400;16.920;2022-12-18T06:49:16;75.10;;;18.60;;
35576;SDS011;21680;52.400;16.920;2022-12-18T06:51:41;76.00;;;16.20;;
35576;SDS011;21680;52.400;16.920;2022-12-18T06:54:07;71.00;;;18.50;;
35576;SDS011;21680;52.400;16.920;2022-12-18T06:56:33;75.00;;;18.80;;
35576;SDS011;21680;52.400;16.920;2022-12-18T06:58:58;68.50;;;16.80;;
35576;SDS011;21680;52.400;16.920;2022-12-18T07:01:24;71.40;;;18.30;;
35576;SDS011;21680;52.400;16.920;2022-12-18T07:03:53;78.10;;;19.20;;
35576;SDS011;21680;52.400;16.920;2022-12-18T07:06:21;89.80;;;23.30;;
35576;SDS011;21680;52.400;16.920;2022-12-18T07:08:48;88.90;;;22.00;;
35576;SDS011;21680;52.400;16.920;2022-12-18T07:11:15;82.50;;;19.80;;
35576;SDS011;21680;52.400;16.920;2022-12-18T07:13:42;113.50;;;25.40;;
35576;SDS011;21680;52.400;16.920;2022-12-18T07:16:09;98.80;;;25.10;;
35576;SDS011;21680;52.400;16.920;2022-12-18T07:18:36;110.70;;;24.10;;
35576;SDS011;21680;52.400;16.920;2022-12-18T07:21:02;111.00;;;25.10;;
35576;SDS011;21680;52.400;16.920;2022-12-18T07:23:29;95.20;;;23.30;;
35576;SDS011;21680;52.400;16.920;2022-12-18T07:25:54;107.30;;;26.90;;
35576;SDS011;21680;52.400;16.920;2022-12-18T07:28:20;108.00;;;24.30;;
35576;SDS011;21680;52.400;16.920;2022-12-18T07:30:45;113.50;;;27.40;;
35576;SDS011;21680;52.400;16.920;2022-12-18T07:33:10;109.20;;;23.90;;
35576;SDS011;21680;52.400;16.920;2022-12-18T07:35:35;107.10;;;25.90;;
35576;SDS011;21680;52.400;16.920;2022-12-18T07:38:01;88.80;;;22.90;;
35576;SDS011;21680;52.400;16.920;2022-12-18T07:40:26;98.10;;;24.80;;
35576;SDS011;21680;52.400;16.920;2022-12-18T07:42:51;123.60;;;30.30;;
35576;SDS011;21680;52.400;16.920;2022-12-18T07:45:17;92.40;;;22.50;;
35576;SDS011;21680;52.400;16.920;2022-12-18T07:47:42;125.20;;;30.90;;
35576;SDS011;21680;52.400;16.920;2022-12-18T07:50:07;109.30;;;28.20;;
35576;SDS011;21680;52.400;16.920;2022-12-18T07:52:34;122.00;;;28.80;;
35576;SDS011;21680;52.400;16.920;2022-12-18T07:54:59;139.00;;;32.70;;
35576;SDS011;21680;52.400;16.920;2022-12-18T07:57:24;124.80;;;29.80;;
35576;SDS011;21680;52.400;16.920;2022-12-18T07:59:50;142.60;;;38.40;;
35576;SDS011;21680;52.400;16.920;2022-12-18T08:02:15;108.60;;;25.70;;
35576;SDS011;21680;52.400;16.920;2022-12-18T08:04:40;129.60;;;33.60;;
35576;SDS011;21680;52.400;16.920;2022-12-18T08:07:06;97.80;;;25.50;;
35576;SDS011;21680;52.400;16.920;2022-12-18T08:09:31;131.80;;;32.20;;
35576;SDS011;21680;52.400;16.920;2022-12-18T08:11:56;104.40;;;26.70;;
35576;SDS011;21680;52.400;16.920;2022-12-18T08:14:21;107.00;;;26.50;;
35576;SDS011;21680;52.400;16.920;2022-12-18T08:16:47;105.40;;;26.50;;
35576;SDS011;21680;52.400;16.920;2022-12-18T08:19:13;81.80;;;22.40;;
35576;SDS011;21680;52.400;16.920;2022-12-18T08:21:38;90.70;;;22.40;;
35576;SDS011;21680;52.400;16.920;2022-12-18T08:24:06;112.70;;;28.30;;
35576;SDS011;21680;52.400;16.920;2022-12-18T08:26:33;108.00;;;24.40;;
35576;SDS011;21680;52.400;16.920;2022-12-18T08:28:59;97.20;;;24.80;;
35576;SDS011;21680;52.400;16.920;2022-12-18T08:31:25;97.30;;;25.50;;
35576;SDS011;21680;52.400;16.920;2022-12-18T08:33:52;98.40;;;23.50;;
35576;SDS011;21680;52.400;16.920;2022-12-18T08:36:18;105.80;;;26.70;;
35576;SDS011;21680;52.400;16.920;2022-12-18T08:38:44;105.10;;;26.10;;
35576;SDS011;21680;52.400;16.920;2022-12-18T08:41:11;98.10;;;24.10;;
35576;SDS011;21680;52.400;16.920;2022-12-18T08:43:37;89.30;;;24.50;;
35576;SDS011;21680;52.400;16.920;2022-12-18T08:46:22;101.20;;;24.20;;
35576;SDS011;21680;52.400;16.920;2022-12-18T08:48:53;82.40;;;22.50;;
35576;SDS011;21680;52.400;16.920;2022-12-18T08:51:20;85.10;;;25.40;;
35576;SDS011;21680;52.400;16.920;2022-12-18T08:53:45;138.10;;;36.90;;
35576;SDS011;21680;52.400;16.920;2022-12-18T08:56:11;120.80;;;30.40;;
35576;SDS011;21680;52.400;16.920;2022-12-18T08:58:38;97.00;;;27.70;;
35576;SDS011;21680;52.400;16.920;2022-12-18T09:01:05;86.70;;;24.60;;
35576;SDS011;21680;52.400;16.920;2022-12-18T09:03:34;88.20;;;25.00;;
35576;SDS011;21680;52.400;16.920;2022-12-18T09:05:59;76.40;;;21.90;;
35576;SDS011;21680;52.400;16.920;2022-12-18T09:08:25;103.60;;;27.00;;
35576;SDS011;21680;52.400;16.920;2022-12-18T09:10:51;86.60;;;23.90;;
35576;SDS011;21680;52.400;16.920;2022-12-18T09:13:16;97.00;;;26.00;;
35576;SDS011;21680;52.400;16.920;2022-12-18T09:15:50;84.50;;;23.00;;
35576;SDS011;21680;52.400;16.920;2022-12-18T09:18:17;90.00;;;25.40;;
35576;SDS011;21680;52.400;16.920;2022-12-18T09:20:45;87.60;;;26.00;;
35576;SDS011;21680;52.400;16.920;2022-12-18T09:23:10;92.70;;;25.00;;
35576;SDS011;21680;52.400;16.920;2022-12-18T09:25:36;93.10;;;27.70;;
35576;SDS011;21680;52.400;16.920;2022-12-18T09:28:04;85.60;;;23.00;;
35576;SDS011;21680;52.400;16.920;2022-12-18T09:30:32;85.40;;;24.60;;
35576;SDS011;21680;52.400;16.920;2022-12-18T09:32:59;103.50;;;29.40;;
35576;SDS011;21680;52.400;16.920;2022-12-18T09:35:25;84.40;;;25.60;;
35576;SDS011;21680;52.400;16.920;2022-12-18T09:37:52;119.00;;;31.80;;
35576;SDS011;21680;52.400;16.920;2022-12-18T09:40:19;98.90;;;25.30;;
35576;SDS011;21680;52.400;16.920;2022-12-18T09:42:57;117.40;;;32.20;;
35576;SDS011;21680;52.400;16.920;2022-12-18T09:45:25;90.60;;;25.60;;
35576;SDS011;21680;52.400;16.920;2022-12-18T09:47:52;109.90;;;26.50;;
35576;SDS011;21680;52.400;16.920;2022-12-18T09:50:24;100.40;;;26.80;;
35576;SDS011;21680;52.400;16.920;2022-12-18T09:52:56;85.00;;;25.80;;
35576;SDS011;21680;52.400;16.920;2022-12-18T09:55:25;97.00;;;26.60;;
35576;SDS011;21680;52.400;16.920;2022-12-18T09:57:59;89.30;;;25.60;;
35576;SDS011;21680;52.400;16.920;2022-12-18T10:00:31;83.00;;;26.50;;
35576;SDS011;21680;52.400;16.920;2022-12-18T10:02:59;107.10;;;31.60;;
35576;SDS011;21680;52.400;16.920;2022-12-18T10:08:46;90.50;;;25.00;;
35576;SDS011;21680;52.400;16.920;2022-12-18T10:11:22;101.60;;;30.00;;
35576;SDS011;21680;52.400;16.920;2022-12-18T10:17:05;88.70;;;24.90;;
35576;SDS011;21680;52.400;16.920;2022-12-18T10:22:13;93.90;;;30.20;;
35576;SDS011;21680;52.400;16.920;2022-12-18T10:27:29;82.30;;;27.00;;
35576;SDS011;21680;52.400;16.920;2022-12-18T10:29:55;82.40;;;25.30;;
35576;SDS011;21680;52.400;16.920;2022-12-18T10:32:22;70.10;;;22.50;;
35576;SDS011;21680;52.400;16.920;2022-12-18T10:34:53;72.10;;;23.70;;
35576;SDS011;21680;52.400;16.920;2022-12-18T10:42:36;78.30;;;24.40;;
35576;SDS011;21680;52.400;16.920;2022-12-18T10:45:09;75.80;;;25.30;;
35576;SDS011;21680;52.400;16.920;2022-12-18T10:47:48;62.90;;;23.70;;
35576;SDS011;21680;52.400;16.920;2022-12-18T10:50:26;63.50;;;23.20;;
35576;SDS011;21680;52.400;16.920;2022-12-18T10:53:02;67.60;;;22.10;;
35576;SDS011;21680;52.400;16.920;2022-12-18T10:55:36;78.90;;;27.80;;
35576;SDS011;21680;52.400;16.920;2022-12-18T10:58:20;72.30;;;25.90;;
35576;SDS011;21680;52.400;16.920;2022-12-18T11:01:01;74.40;;;25.10;;
35576;SDS011;21680;52.400;16.920;2022-12-18T11:06:04;69.20;;;26.10;;
35576;SDS011;21680;52.400;16.920;2022-12-18T11:08:34;74.90;;;27.80;;
35576;SDS011;21680;52.400;16.920;2022-12-18T11:11:00;73.30;;;25.00;;
35576;SDS011;21680;52.400;16.920;2022-12-18T11:13:27;69.90;;;25.70;;
35576;SDS011;21680;52.400;16.920;2022-12-18T11:15:54;63.90;;;25.10;;
35576;SDS011;21680;52.400;16.920;2022-12-18T11:18:30;63.00;;;22.10;;
35576;SDS011;21680;52.400;16.920;2022-12-18T11:21:06;69.70;;;25.80;;
35576;SDS011;21680;52.400;16.920;2022-12-18T11:23:34;70.40;;;25.10;;
35576;SDS011;21680;52.400;16.920;2022-12-18T11:26:01;69.00;;;24.70;;
35576;SDS011;21680;52.400;16.920;2022-12-18T11:31:33;77.10;;;26.70;;
35576;SDS011;21680;52.400;16.920;2022-12-18T11:36:50;76.10;;;28.30;;
35576;SDS011;21680;52.400;16.920;2022-12-18T11:39:21;70.10;;;25.60;;
35576;SDS011;21680;52.400;16.920;2022-12-18T11:41:56;62.90;;;22.10;;
35576;SDS011;21680;52.400;16.920;2022-12-18T11:47:15;56.10;;;20.80;;
35576;SDS011;21680;52.400;16.920;2022-12-18T11:49:50;69.60;;;25.40;;
35576;SDS011;21680;52.400;16.920;2022-12-18T11:52:25;75.70;;;25.80;;
35576;SDS011;21680;52.400;16.920;2022-12-18T11:54:57;61.60;;;21.90;;
35576;SDS011;21680;52.400;16.920;2022-12-18T12:00:21;61.50;;;21.70;;
35576;SDS011;21680;52.400;16.920;2022-12-18T12:05:50;66.50;;;21.60;;
35576;SDS011;21680;52.400;16.920;2022-12-18T12:11:28;63.00;;;23.40;;
35576;SDS011;21680;52.400;16.920;2022-12-18T12:14:09;75.00;;;24.20;;
35576;SDS011;21680;52.400;16.920;2022-12-18T12:19:20;88.00;;;26.80;;
35576;SDS011;21680;52.400;16.920;2022-12-18T12:25:35;69.60;;;25.00;;
35576;SDS011;21680;52.400;16.920;2022-12-18T12:34:03;59.50;;;22.00;;
35576;SDS011;21680;52.400;16.920;2022-12-18T12:39:27;84.90;;;30.60;;
35576;SDS011;21680;52.400;16.920;2022-12-18T12:41:58;74.90;;;28.50;;
35576;SDS011;21680;52.400;16.920;2022-12-18T12:44:43;96.00;;;30.80;;
35576;SDS011;21680;52.400;16.920;2022-12-18T12:47:14;58.40;;;23.10;;
35576;SDS011;21680;52.400;16.920;2022-12-18T12:49:43;72.70;;;24.40;;
35576;SDS011;21680;52.400;16.920;2022-12-18T12:52:35;61.90;;;22.40;;
35576;SDS011;21680;52.400;16.920;2022-12-18T12:55:21;85.80;;;27.90;;
35576;SDS011;21680;52.400;16.920;2022-12-18T13:03:41;62.30;;;22.80;;
35576;SDS011;21680;52.400;16.920;2022-12-18T13:06:16;69.10;;;24.50;;
35576;SDS011;21680;52.400;16.920;2022-12-18T13:08:59;65.30;;;23.80;;
35576;SDS011;21680;52.400;16.920;2022-12-18T13:11:47;59.70;;;20.50;;
35576;SDS011;21680;52.400;16.920;2022-12-18T13:14:35;55.60;;;20.30;;
35576;SDS011;21680;52.400;16.920;2022-12-18T13:22:48;73.00;;;25.40;;
35576;SDS011;21680;52.400;16.920;2022-12-18T13:30:44;77.00;;;26.30;;
35576;SDS011;21680;52.400;16.920;2022-12-18T13:43:50;84.30;;;29.50;;
35576;SDS011;21680;52.400;16.920;2022-12-18T13:46:19;82.80;;;27.90;;
35576;SDS011;21680;52.400;16.920;2022-12-18T13:48:52;85.80;;;28.80;;
35576;SDS011;21680;52.400;16.920;2022-12-18T13:51:19;107.10;;;34.00;;
35576;SDS011;21680;52.400;16.920;2022-12-18T13:53:53;93.70;;;31.60;;
35576;SDS011;21680;52.400;16.920;2022-12-18T13:56:22;88.30;;;34.60;;
35576;SDS011;21680;52.400;16.920;2022-12-18T13:59:08;91.00;;;32.20;;
35576;SDS011;21680;52.400;16.920;2022-12-18T14:01:48;83.40;;;30.40;;
35576;SDS011;21680;52.400;16.920;2022-12-18T14:04:18;96.30;;;34.90;;
35576;SDS011;21680;52.400;16.920;2022-12-18T14:06:47;92.50;;;30.10;;
35576;SDS011;21680;52.400;16.920;2022-12-18T14:09:17;100.70;;;33.50;;
35576;SDS011;21680;52.400;16.920;2022-12-18T14:11:48;105.50;;;37.00;;
35576;SDS011;21680;52.400;16.920;2022-12-18T14:14:16;116.50;;;38.50;;
35576;SDS011;21680;52.400;16.920;2022-12-18T14:16:43;114.60;;;35.00;;
35576;SDS011;21680;52.400;16.920;2022-12-18T14:19:17;108.00;;;36.00;;
35576;SDS011;21680;52.400;16.920;2022-12-18T14:21:47;96.20;;;33.50;;
35576;SDS011;21680;52.400;16.920;2022-12-18T14:24:19;105.70;;;34.70;;
35576;SDS011;21680;52.400;16.920;2022-12-18T14:26:47;102.00;;;30.10;;
35576;SDS011;21680;52.400;16.920;2022-12-18T14:29:19;94.40;;;33.60;;
35576;SDS011;21680;52.400;16.920;2022-12-18T14:32:11;101.20;;;37.20;;
35576;SDS011;21680;52.400;16.920;2022-12-18T14:34:46;100.60;;;34.80;;
35576;SDS011;21680;52.400;16.920;2022-12-18T14:37:16;109.00;;;34.00;;
35576;SDS011;21680;52.400;16.920;2022-12-18T14:40:11;117.30;;;38.00;;
35576;SDS011;21680;52.400;16.920;2022-12-18T14:42:31;114.20;;;38.60;;
35576;SDS011;21680;52.400;16.920;2022-12-18T14:48:18;118.60;;;38.20;;
35576;SDS011;21680;52.400;16.920;2022-12-18T14:50:53;94.80;;;34.30;;
35576;SDS011;21680;52.400;16.920;2022-12-18T14:53:32;109.50;;;37.00;;
35576;SDS011;21680;52.400;16.920;2022-12-18T14:56:00;113.30;;;36.10;;
35576;SDS011;21680;52.400;16.920;2022-12-18T14:58:30;118.90;;;37.80;;
35576;SDS011;21680;52.400;16.920;2022-12-18T15:00:55;112.50;;;36.40;;
35576;SDS011;21680;52.400;16.920;2022-12-18T15:03:20;107.90;;;38.70;;
35576;SDS011;21680;52.400;16.920;2022-12-18T15:05:47;106.00;;;36.80;;
35576;SDS011;21680;52.400;16.920;2022-12-18T15:11:01;110.90;;;40.70;;
35576;SDS011;21680;52.400;16.920;2022-12-18T15:13:27;121.60;;;36.40;;
35576;SDS011;21680;52.400;16.920;2022-12-18T15:15:54;109.00;;;37.50;;
35576;SDS011;21680;52.400;16.920;2022-12-18T15:18:29;95.90;;;31.40;;
35576;SDS011;21680;52.400;16.920;2022-12-18T15:20:58;100.90;;;32.80;;
35576;SDS011;21680;52.400;16.920;2022-12-18T15:23:35;94.80;;;32.10;;
35576;SDS011;21680;52.400;16.920;2022-12-18T15:26:20;103.90;;;31.10;;
35576;SDS011;21680;52.400;16.920;2022-12-18T15:28:51;99.90;;;30.70;;
35576;SDS011;21680;52.400;16.920;2022-12-18T15:31:32;89.80;;;30.70;;
35576;SDS011;21680;52.400;16.920;2022-12-18T15:36:59;105.30;;;37.20;;
35576;SDS011;21680;52.400;16.920;2022-12-18T15:39:24;104.20;;;34.20;;
35576;SDS011;21680;52.400;16.920;2022-12-18T15:41:53;109.20;;;36.00;;
35576;SDS011;21680;52.400;16.920;2022-12-18T15:44:37;88.70;;;30.70;;
35576;SDS011;21680;52.400;16.920;2022-12-18T15:47:02;90.50;;;30.10;;
35576;SDS011;21680;52.400;16.920;2022-12-18T15:49:28;90.50;;;29.60;;
35576;SDS011;21680;52.400;16.920;2022-12-18T15:51:54;74.90;;;26.60;;
35576;SDS011;21680;52.400;16.920;2022-12-18T15:54:23;84.00;;;26.80;;
35576;SDS011;21680;52.400;16.920;2022-12-18T15:57:09;92.90;;;29.70;;
35576;SDS011;21680;52.400;16.920;2022-12-18T15:59:52;87.80;;;27.50;;
35576;SDS011;21680;52.400;16.920;2022-12-18T16:02:20;77.20;;;26.80;;
35576;SDS011;21680;52.400;16.920;2022-12-18T16:04:47;76.40;;;27.40;;
35576;SDS011;21680;52.400;16.920;2022-12-18T16:07:14;86.80;;;29.80;;
35576;SDS011;21680;52.400;16.920;2022-12-18T16:09:40;88.40;;;27.30;;
35576;SDS011;21680;52.400;16.920;2022-12-18T16:12:08;90.90;;;30.30;;
35576;SDS011;21680;52.400;16.920;2022-12-18T16:14:40;95.40;;;32.30;;